Terminal Aerodrome Forecast
Issued by NWS

Home | Current Version | Previous Version | Text Only | Print | Product List | Glossary Off
Versions: 1 2 3 4 5 6 7 8 9 10 11 12 13

000
FTUS43 KFGF 231100
TAFBJI
TAF
KBJI 231131Z 2312/2412 01003KT 1SM -SN BR OVC002
      TEMPO 2314/2317 3SM BR
     FM231700 36010KT 3SM BR OVC003
     FM240000 33008KT P6SM OVC004=

USA.gov is the U.S. government's official web portal to all federal, state and local government web resources and services.